createdAt,value
2022-10-20T00:00:19.113Z,62.22
2022-10-20T00:01:51.095Z,62.67
2022-10-20T00:03:23.702Z,62.93
2022-10-20T00:04:55.883Z,63.02
2022-10-20T00:06:30.320Z,63.55
2022-10-20T00:08:02.564Z,63.48
2022-10-20T00:09:34.584Z,63.34
2022-10-20T00:11:07.872Z,63.39
2022-10-20T00:12:39.966Z,62.94
2022-10-20T00:14:12.019Z,63.27
2022-10-20T00:15:50.143Z,63.02
2022-10-20T00:17:22.113Z,62.83
2022-10-20T00:18:55.688Z,62.98
2022-10-20T00:20:27.755Z,62.95
2022-10-20T00:22:00.468Z,62.66
2022-10-20T00:23:32.392Z,62.68
2022-10-20T00:25:04.660Z,62.76
2022-10-20T00:26:36.673Z,62.71
2022-10-20T00:28:08.716Z,62.92
2022-10-20T00:29:40.734Z,62.95
2022-10-20T00:31:13.448Z,62.88
2022-10-20T00:32:48.026Z,62.82
2022-10-20T00:34:20.063Z,62.82
2022-10-20T00:35:52.075Z,63.00
2022-10-20T00:37:24.345Z,63.18
2022-10-20T00:39:00.977Z,62.85
2022-10-20T00:40:33.062Z,62.97
2022-10-20T00:42:06.300Z,62.97
2022-10-20T00:43:49.366Z,62.86
2022-10-20T00:45:22.712Z,62.88
2022-10-20T00:46:54.478Z,62.98
2022-10-20T00:48:28.740Z,63.01
2022-10-20T00:50:22.813Z,63.05
2022-10-20T00:51:55.265Z,63.23
2022-10-20T00:53:29.248Z,63.26
2022-10-20T00:55:02.095Z,63.50
2022-10-20T00:56:34.419Z,63.55
2022-10-20T00:58:06.652Z,63.73
2022-10-20T00:59:39.370Z,63.52
2022-10-20T01:01:12.748Z,63.55
2022-10-20T01:02:44.905Z,63.36
2022-10-20T01:04:17.221Z,63.61
2022-10-20T01:05:51.934Z,63.60
2022-10-20T01:07:24.023Z,63.75
2022-10-20T01:08:56.135Z,63.74
2022-10-20T01:10:33.058Z,63.84
2022-10-20T01:12:22.123Z,64.04
2022-10-20T01:13:59.990Z,64.21
2022-10-20T01:15:55.542Z,64.25
2022-10-20T01:17:37.168Z,64.46
2022-10-20T01:19:24.823Z,64.80
2022-10-20T01:21:41.724Z,64.76
2022-10-20T01:23:50.870Z,65.21
2022-10-20T01:25:41.331Z,65.25
2022-10-20T01:27:17.376Z,65.58
2022-10-20T01:29:10.168Z,65.60
2022-10-20T01:30:46.738Z,66.32
2022-10-20T01:32:39.213Z,66.69
2022-10-20T01:34:39.606Z,66.26
2022-10-20T01:36:19.286Z,66.63
2022-10-20T01:38:00.805Z,66.72
2022-10-20T01:39:46.658Z,67.18
2022-10-20T01:41:23.701Z,67.46
2022-10-20T01:42:59.169Z,67.72
2022-10-20T01:44:32.387Z,68.06
2022-10-20T01:46:05.063Z,67.95
2022-10-20T01:47:38.032Z,68.26
2022-10-20T01:49:10.569Z,68.42
2022-10-20T01:50:42.914Z,68.45
2022-10-20T01:52:15.003Z,68.68
2022-10-20T01:53:46.980Z,68.84
2022-10-20T01:55:19.036Z,68.91
2022-10-20T01:57:27.912Z,68.92
2022-10-20T01:58:59.903Z,68.98
2022-10-20T02:00:32.396Z,69.33
2022-10-20T02:02:31.814Z,69.37
2022-10-20T02:04:05.673Z,69.01
2022-10-20T02:06:02.022Z,68.82
2022-10-20T02:07:34.366Z,68.53
2022-10-20T02:09:09.727Z,68.34
2022-10-20T02:10:49.215Z,68.27
2022-10-20T02:12:28.325Z,67.83
2022-10-20T02:14:00.364Z,67.36
2022-10-20T02:15:33.226Z,67.59
2022-10-20T02:17:08.432Z,67.05
2022-10-20T02:18:45.864Z,67.02
2022-10-20T02:20:17.963Z,66.68
2022-10-20T02:21:52.556Z,66.46
2022-10-20T02:23:24.677Z,66.27
2022-10-20T02:24:56.645Z,65.95
2022-10-20T02:26:31.009Z,65.84
2022-10-20T02:28:04.035Z,65.47
2022-10-20T02:31:09.955Z,65.12
2022-10-20T02:32:44.390Z,64.62
2022-10-20T02:34:16.617Z,64.00
2022-10-20T02:35:56.987Z,63.58
2022-10-20T02:37:29.003Z,63.16
2022-10-20T02:39:01.015Z,62.83
2022-10-20T02:40:33.144Z,62.81
2022-10-20T02:42:05.559Z,62.36
2022-10-20T02:43:37.624Z,62.03
2022-10-20T02:45:12.804Z,61.69
2022-10-20T02:46:44.833Z,61.25
2022-10-20T02:48:16.764Z,61.10
2022-10-20T02:49:49.284Z,60.74
2022-10-20T02:51:21.384Z,60.52
2022-10-20T02:52:53.500Z,60.30
2022-10-20T02:54:27.785Z,60.41
2022-10-20T02:56:00.130Z,60.50
2022-10-20T02:57:32.153Z,60.41
2022-10-20T02:59:04.144Z,60.47
2022-10-20T03:00:36.138Z,60.42
2022-10-20T03:02:08.106Z,60.47
2022-10-20T03:03:40.256Z,60.41
2022-10-20T03:05:12.342Z,60.41
2022-10-20T03:06:44.431Z,60.74
2022-10-20T03:08:16.526Z,60.58
2022-10-20T03:09:49.253Z,60.51
2022-10-20T03:11:21.264Z,60.49
2022-10-20T03:12:55.931Z,60.59
2022-10-20T03:14:28.063Z,60.49
2022-10-20T03:16:01.803Z,60.40
2022-10-20T03:17:34.129Z,60.37
2022-10-20T03:19:09.107Z,60.37
2022-10-20T03:20:44.845Z,60.42
2022-10-20T03:22:16.692Z,60.37
2022-10-20T03:23:49.169Z,60.49
2022-10-20T03:25:21.157Z,60.47
2022-10-20T03:26:53.301Z,60.68
2022-10-20T03:29:58.145Z,61.03
2022-10-20T03:31:30.570Z,61.49
2022-10-20T03:33:02.580Z,61.75
2022-10-20T03:34:34.581Z,62.06
2022-10-20T03:36:06.738Z,62.22
2022-10-20T03:37:38.769Z,62.44
2022-10-20T03:39:10.773Z,62.27
2022-10-20T03:40:42.755Z,62.48
2022-10-20T03:42:15.298Z,62.50
2022-10-20T03:43:47.343Z,62.87
2022-10-20T03:45:19.365Z,62.98
2022-10-20T03:46:51.335Z,63.23
2022-10-20T03:48:23.308Z,63.47
2022-10-20T03:49:55.343Z,63.79
2022-10-20T03:51:27.410Z,64.27
2022-10-20T03:52:59.649Z,64.38
2022-10-20T03:54:32.020Z,64.65
2022-10-20T03:56:08.387Z,64.99
2022-10-20T03:57:43.471Z,64.78
2022-10-20T03:59:15.470Z,65.08
2022-10-20T04:00:48.257Z,65.30
2022-10-20T04:02:36.309Z,65.35
2022-10-20T04:04:11.876Z,65.39
2022-10-20T04:05:43.922Z,65.94
2022-10-20T04:07:15.977Z,66.01
2022-10-20T04:08:47.998Z,66.36
2022-10-20T04:10:20.102Z,66.38
2022-10-20T04:11:52.103Z,66.47
2022-10-20T04:13:24.153Z,66.75
2022-10-20T04:14:56.167Z,67.03
2022-10-20T04:16:28.160Z,66.91
2022-10-20T04:18:00.188Z,67.48
2022-10-20T04:19:32.189Z,67.44
2022-10-20T04:21:04.345Z,67.73
2022-10-20T04:22:36.631Z,67.84
2022-10-20T04:24:08.909Z,68.21
2022-10-20T04:25:45.927Z,68.16
2022-10-20T04:27:17.929Z,68.54
2022-10-20T04:28:50.036Z,68.52
2022-10-20T04:30:22.051Z,68.59
2022-10-20T04:31:56.520Z,68.76
2022-10-20T04:33:28.525Z,68.83
2022-10-20T04:35:00.561Z,69.06
2022-10-20T04:36:32.655Z,69.01
2022-10-20T04:38:05.089Z,69.23
2022-10-20T04:39:37.190Z,69.38
2022-10-20T04:41:10.782Z,69.34
2022-10-20T04:42:42.798Z,69.63
2022-10-20T04:44:15.720Z,69.60
2022-10-20T04:45:47.728Z,69.71
2022-10-20T04:47:22.851Z,69.65
2022-10-20T04:48:54.916Z,69.73
2022-10-20T04:50:27.109Z,69.72
2022-10-20T04:52:01.153Z,70.02
2022-10-20T04:53:34.693Z,70.17
2022-10-20T04:55:07.073Z,70.47
2022-10-20T04:56:39.187Z,70.55
2022-10-20T04:59:44.378Z,70.58
2022-10-20T05:01:16.806Z,70.94
2022-10-20T05:02:48.822Z,71.11
2022-10-20T05:04:23.474Z,71.24
2022-10-20T05:05:55.537Z,71.27
2022-10-20T05:07:30.791Z,71.32
2022-10-20T05:09:05.537Z,71.40
2022-10-20T05:10:37.601Z,71.25
2022-10-20T05:12:09.795Z,71.21
2022-10-20T05:13:42.721Z,71.49
2022-10-20T05:15:14.905Z,71.48
2022-10-20T05:16:46.948Z,71.69
2022-10-20T05:18:19.045Z,71.52
2022-10-20T05:19:51.132Z,71.36
2022-10-20T05:21:26.632Z,71.47
2022-10-20T05:22:58.727Z,71.56
2022-10-20T05:24:30.946Z,71.52
2022-10-20T05:26:04.498Z,71.59
2022-10-20T05:27:36.505Z,71.31
2022-10-20T05:29:10.626Z,71.27
2022-10-20T05:32:34.810Z,71.24
2022-10-20T05:34:10.404Z,71.33
2022-10-20T05:35:42.394Z,71.40
2022-10-20T05:37:14.858Z,71.63
2022-10-20T05:38:48.214Z,71.86
2022-10-20T05:40:20.236Z,71.99
2022-10-20T05:41:52.239Z,72.35
2022-10-20T05:43:24.298Z,72.61
2022-10-20T05:44:56.636Z,72.56
2022-10-20T05:46:30.870Z,72.49
2022-10-20T05:48:02.925Z,72.81
2022-10-20T05:49:34.996Z,72.59
2022-10-20T05:51:27.746Z,72.44
2022-10-20T05:53:00.365Z,72.53
2022-10-20T05:54:32.510Z,72.62
2022-10-20T05:56:06.285Z,72.45
2022-10-20T05:57:38.426Z,72.35
2022-10-20T05:59:11.302Z,72.40
2022-10-20T06:00:52.431Z,72.18
2022-10-20T06:02:24.555Z,71.73
2022-10-20T06:04:00.686Z,71.34
2022-10-20T06:05:32.751Z,71.42
2022-10-20T06:07:10.303Z,71.51
2022-10-20T06:08:42.639Z,70.91
2022-10-20T06:10:14.760Z,71.73
2022-10-20T06:11:50.105Z,71.02
2022-10-20T06:13:22.202Z,71.27
2022-10-20T06:14:54.316Z,70.98
2022-10-20T06:16:27.475Z,70.49
2022-10-20T06:17:59.491Z,70.33
2022-10-20T06:19:31.749Z,70.06
2022-10-20T06:21:06.908Z,69.94
2022-10-20T06:22:39.205Z,70.25
2022-10-20T06:24:12.287Z,70.06
2022-10-20T06:25:44.303Z,70.22
2022-10-20T06:29:04.447Z,69.89
2022-10-20T06:30:36.897Z,69.63
2022-10-20T06:32:09.130Z,69.62
2022-10-20T06:33:41.632Z,69.37
2022-10-20T06:35:13.970Z,68.97
2022-10-20T06:36:46.626Z,68.63
2022-10-20T06:38:19.312Z,68.54
2022-10-20T06:39:51.577Z,68.35
2022-10-20T06:41:24.272Z,68.12
2022-10-20T06:42:56.822Z,67.68
2022-10-20T06:44:29.225Z,67.25
2022-10-20T06:46:03.622Z,66.93
2022-10-20T06:47:36.119Z,66.35
2022-10-20T06:49:08.697Z,65.51
2022-10-20T06:50:40.633Z,65.63
2022-10-20T06:52:12.756Z,64.79
2022-10-20T06:53:46.704Z,63.82
2022-10-20T06:55:19.455Z,63.64
2022-10-20T06:56:52.233Z,63.27
2022-10-20T06:58:24.453Z,63.25
2022-10-20T06:59:56.593Z,62.86
2022-10-20T07:01:31.585Z,62.69
2022-10-20T07:04:40.966Z,61.82
2022-10-20T07:06:21.347Z,61.14
2022-10-20T07:07:53.946Z,60.91
2022-10-20T07:09:26.150Z,59.31
2022-10-20T07:11:18.410Z,59.59
2022-10-20T07:12:50.552Z,59.94
2022-10-20T07:14:22.846Z,59.72
2022-10-20T07:15:55.902Z,59.72
2022-10-20T07:17:28.336Z,59.38
2022-10-20T07:19:01.482Z,59.27
2022-10-20T07:20:34.298Z,58.67
2022-10-20T07:22:06.498Z,57.96
2022-10-20T07:23:38.790Z,57.92
2022-10-20T07:25:11.086Z,58.24
2022-10-20T07:26:43.536Z,58.96
2022-10-20T07:28:15.685Z,58.48
2022-10-20T07:29:48.173Z,58.22
2022-10-20T07:31:23.512Z,58.21
2022-10-20T07:32:55.790Z,57.53
2022-10-20T07:34:28.287Z,56.36
2022-10-20T07:36:00.649Z,56.69
2022-10-20T07:37:32.919Z,55.65
2022-10-20T07:39:07.193Z,54.28
2022-10-20T07:40:39.475Z,54.51
2022-10-20T07:42:11.814Z,54.91
2022-10-20T07:43:44.361Z,54.34
2022-10-20T07:45:16.714Z,55.11
2022-10-20T07:46:49.214Z,54.14
2022-10-20T07:48:21.615Z,53.76
2022-10-20T07:49:53.775Z,54.14
2022-10-20T07:51:29.310Z,53.42
2022-10-20T07:53:01.734Z,53.43
2022-10-20T07:54:34.378Z,53.08
2022-10-20T07:56:07.178Z,53.61
2022-10-20T07:57:39.272Z,52.74
2022-10-20T07:59:12.049Z,53.19
2022-10-20T08:00:44.174Z,53.05
2022-10-20T08:02:16.745Z,52.44
2022-10-20T08:03:48.902Z,52.48
2022-10-20T08:05:21.047Z,53.02
2022-10-20T08:06:53.300Z,52.94
2022-10-20T08:08:25.956Z,52.38
2022-10-20T08:09:58.259Z,52.73
2022-10-20T08:11:30.570Z,52.61
2022-10-20T08:13:02.654Z,52.89
2022-10-20T08:14:36.646Z,52.96
2022-10-20T08:16:13.579Z,52.70
2022-10-20T08:17:45.615Z,53.07
2022-10-20T08:19:30.439Z,53.31
2022-10-20T08:21:24.974Z,53.50
2022-10-20T08:22:57.038Z,53.87
2022-10-20T08:24:29.030Z,54.05
2022-10-20T08:26:01.125Z,54.27
2022-10-20T08:27:33.212Z,54.38
2022-10-20T08:29:05.315Z,53.96
2022-10-20T08:30:37.781Z,54.71
2022-10-20T08:32:11.009Z,53.47
2022-10-20T08:33:43.573Z,53.96
2022-10-20T08:35:16.387Z,53.53
2022-10-20T08:36:48.733Z,53.14
2022-10-20T08:38:20.959Z,52.89
2022-10-20T08:39:53.264Z,53.31
2022-10-20T08:41:43.405Z,52.91
2022-10-20T08:43:25.991Z,53.36
2022-10-20T08:45:00.322Z,53.15
2022-10-20T08:46:38.039Z,53.21
2022-10-20T08:48:16.604Z,53.36
2022-10-20T08:49:48.933Z,53.16
2022-10-20T08:51:27.985Z,53.01
2022-10-20T08:53:01.368Z,53.08
2022-10-20T08:54:33.310Z,53.11
2022-10-20T08:56:05.960Z,53.41
2022-10-20T08:57:38.443Z,52.70
2022-10-20T08:59:39.236Z,52.66
2022-10-20T09:01:23.439Z,52.32
2022-10-20T09:02:56.509Z,52.07
2022-10-20T09:04:38.516Z,51.94
2022-10-20T09:06:15.791Z,51.43
2022-10-20T09:07:51.847Z,51.78
2022-10-20T09:09:25.212Z,52.24
2022-10-20T09:10:57.396Z,51.61
2022-10-20T09:12:31.140Z,52.14
2022-10-20T09:14:03.510Z,52.38
2022-10-20T09:15:35.909Z,52.80
2022-10-20T09:17:15.532Z,51.37
2022-10-20T09:18:52.752Z,51.14
2022-10-20T09:20:35.554Z,51.76
2022-10-20T09:22:08.053Z,51.43
2022-10-20T09:23:42.913Z,51.73
2022-10-20T09:25:17.559Z,51.50
2022-10-20T09:26:58.557Z,51.03
2022-10-20T09:28:42.937Z,51.02
2022-10-20T09:30:36.564Z,52.25
2022-10-20T09:34:26.883Z,50.83
2022-10-20T09:36:19.194Z,49.95
2022-10-20T09:38:04.755Z,49.60
2022-10-20T09:39:55.105Z,49.39
2022-10-20T09:41:31.110Z,49.59
2022-10-20T09:43:17.120Z,49.39
2022-10-20T09:44:56.300Z,50.18
2022-10-20T09:46:37.682Z,51.06
2022-10-20T09:48:22.063Z,50.11
2022-10-20T09:50:01.183Z,50.35
2022-10-20T09:51:33.993Z,50.13
2022-10-20T09:53:16.460Z,49.49
2022-10-20T09:54:50.891Z,49.21
2022-10-20T09:56:40.626Z,49.08
2022-10-20T09:58:38.274Z,47.88
2022-10-20T10:00:36.342Z,47.43
2022-10-20T10:02:15.973Z,46.99
2022-10-20T10:03:52.221Z,46.81
2022-10-20T10:05:33.834Z,46.91
2022-10-20T10:07:25.796Z,45.83
2022-10-20T10:09:00.167Z,45.33
2022-10-20T10:10:32.755Z,44.88
2022-10-20T10:12:15.481Z,45.28
2022-10-20T10:13:49.883Z,45.44
2022-10-20T10:15:31.312Z,45.83
2022-10-20T10:17:03.735Z,45.68
2022-10-20T10:18:36.811Z,44.91
2022-10-20T10:20:12.030Z,44.67
2022-10-20T10:21:52.471Z,44.78
2022-10-20T10:23:30.160Z,44.60
2022-10-20T10:25:03.022Z,45.04
2022-10-20T10:26:38.391Z,44.68
2022-10-20T10:28:32.262Z,44.92
2022-10-20T10:30:28.447Z,44.40
2022-10-20T10:32:13.831Z,44.54
2022-10-20T10:33:46.720Z,45.04
2022-10-20T10:35:33.774Z,44.40
2022-10-20T10:37:06.212Z,44.73
2022-10-20T10:38:39.980Z,44.02
2022-10-20T10:40:20.684Z,43.91
2022-10-20T10:42:17.389Z,44.58
2022-10-20T10:44:07.344Z,43.76
2022-10-20T10:45:53.390Z,43.89
2022-10-20T10:47:28.271Z,44.02
2022-10-20T10:49:23.402Z,44.70
2022-10-20T10:50:59.728Z,44.38
2022-10-20T10:52:45.570Z,44.07
2022-10-20T10:54:50.297Z,44.00
2022-10-20T10:56:44.100Z,44.53
2022-10-20T10:58:48.338Z,43.45
2022-10-20T11:00:57.980Z,43.29
2022-10-20T11:02:58.270Z,41.99
2022-10-20T11:04:40.465Z,42.56
2022-10-20T11:06:19.708Z,42.00
2022-10-20T11:08:08.376Z,42.21
2022-10-20T11:10:01.840Z,41.97
2022-10-20T11:12:01.614Z,43.07
2022-10-20T11:14:10.308Z,42.19
2022-10-20T11:16:23.714Z,41.94
2022-10-20T11:18:08.266Z,41.30
2022-10-20T11:19:46.580Z,41.70
2022-10-20T11:21:37.510Z,41.14
2022-10-20T11:23:47.323Z,41.40
2022-10-20T11:25:31.803Z,40.63
2022-10-20T11:27:11.095Z,40.42
2022-10-20T11:28:46.225Z,38.96
2022-10-20T11:30:21.901Z,39.89
2022-10-20T11:32:27.198Z,40.39
2022-10-20T11:34:10.667Z,40.29
2022-10-20T11:35:57.909Z,38.71
2022-10-20T11:37:33.719Z,38.98
2022-10-20T11:39:07.263Z,38.98
2022-10-20T11:40:41.597Z,39.05
2022-10-20T11:42:26.757Z,38.75
2022-10-20T11:44:16.689Z,38.35
2022-10-20T11:47:36.871Z,39.65
2022-10-20T11:49:12.514Z,39.02
2022-10-20T11:50:57.200Z,39.15
2022-10-20T11:53:01.087Z,38.21
2022-10-20T11:54:45.463Z,38.91
2022-10-20T11:56:45.156Z,38.78
2022-10-20T11:58:36.547Z,38.52
2022-10-20T12:00:28.080Z,38.29
2022-10-20T12:02:30.103Z,38.46
2022-10-20T12:04:26.893Z,38.38
2022-10-20T12:06:20.269Z,39.40
2022-10-20T12:08:46.841Z,39.14
2022-10-20T12:11:07.082Z,40.29
2022-10-20T12:13:01.609Z,39.63
2022-10-20T12:14:40.983Z,39.70
2022-10-20T12:16:13.196Z,39.53
2022-10-20T12:17:47.060Z,39.37
2022-10-20T12:19:24.259Z,39.62
2022-10-20T12:21:06.494Z,38.91
2022-10-20T12:22:41.334Z,38.71
2022-10-20T12:24:35.142Z,37.26
2022-10-20T12:26:30.527Z,37.69
2022-10-20T12:28:23.737Z,37.79
2022-10-20T12:30:38.755Z,37.72
2022-10-20T12:32:25.611Z,38.27
2022-10-20T12:34:04.318Z,38.37
2022-10-20T12:36:15.341Z,37.76
2022-10-20T12:37:58.890Z,38.07
2022-10-20T12:39:31.204Z,38.06
2022-10-20T12:41:04.631Z,37.73
2022-10-20T12:42:40.432Z,36.85
2022-10-20T12:44:17.527Z,37.13
2022-10-20T12:45:51.042Z,36.85
2022-10-20T12:47:26.466Z,36.53
2022-10-20T12:49:01.724Z,36.75
2022-10-20T12:50:37.613Z,36.98
2022-10-20T12:52:20.347Z,36.65
2022-10-20T12:54:29.903Z,36.05
2022-10-20T12:56:08.927Z,36.56
2022-10-20T12:57:45.748Z,37.10
2022-10-20T12:59:30.298Z,36.29
2022-10-20T13:01:12.807Z,36.47
2022-10-20T13:02:56.331Z,36.89
2022-10-20T13:04:55.071Z,36.68
2022-10-20T13:06:27.378Z,37.18
2022-10-20T13:08:00.893Z,36.62
2022-10-20T13:10:01.708Z,36.41
2022-10-20T13:11:36.492Z,36.69
2022-10-20T13:13:08.611Z,36.53
2022-10-20T13:14:49.819Z,35.83
2022-10-20T13:16:22.261Z,36.26
2022-10-20T13:18:02.044Z,36.36
2022-10-20T13:20:01.431Z,36.46
2022-10-20T13:21:35.014Z,37.35
2022-10-20T13:23:12.836Z,36.14
2022-10-20T13:24:45.459Z,36.17
2022-10-20T13:26:32.685Z,36.22
2022-10-20T13:28:15.350Z,36.38
2022-10-20T13:29:47.775Z,37.13
2022-10-20T13:31:26.358Z,36.99
2022-10-20T13:33:44.858Z,36.63
2022-10-20T13:35:40.014Z,36.34
2022-10-20T13:37:34.296Z,35.33
2022-10-20T13:39:17.454Z,36.11
2022-10-20T13:42:57.654Z,35.91
2022-10-20T13:44:40.871Z,35.91
2022-10-20T13:46:13.231Z,35.93
2022-10-20T13:48:13.919Z,35.92
2022-10-20T13:50:14.238Z,35.48
2022-10-20T13:51:52.750Z,36.02
2022-10-20T13:53:29.154Z,36.10
2022-10-20T13:55:01.865Z,35.95
2022-10-20T13:56:37.114Z,36.00
2022-10-20T13:58:18.924Z,35.97
2022-10-20T14:00:02.746Z,36.36
2022-10-20T14:01:36.861Z,36.79
2022-10-20T14:03:18.543Z,35.64
2022-10-20T14:05:02.915Z,36.08
2022-10-20T14:06:37.834Z,36.49
2022-10-20T14:08:11.897Z,36.41
2022-10-20T14:09:47.447Z,36.28
2022-10-20T14:11:22.013Z,35.64
2022-10-20T14:12:55.607Z,36.21
2022-10-20T14:14:30.100Z,36.40
2022-10-20T14:16:06.151Z,36.44
2022-10-20T14:17:40.804Z,35.82
2022-10-20T14:19:14.124Z,36.05
2022-10-20T14:21:00.461Z,36.49
2022-10-20T14:22:32.866Z,35.87
2022-10-20T14:24:05.460Z,36.26
2022-10-20T14:25:38.058Z,36.38
2022-10-20T14:27:22.090Z,35.78
2022-10-20T14:28:54.849Z,35.89
2022-10-20T14:30:27.473Z,36.09
2022-10-20T14:32:00.218Z,36.34
2022-10-20T16:50:13.537Z,58.02
2022-10-20T16:51:45.597Z,57.90
2022-10-20T16:53:17.826Z,58.08
2022-10-20T16:54:49.855Z,58.05
2022-10-20T16:56:22.484Z,58.51
2022-10-20T16:57:56.177Z,59.08
2022-10-20T16:59:28.600Z,59.09
2022-10-20T17:01:09.997Z,59.36
2022-10-20T17:02:44.428Z,59.27
2022-10-20T17:04:16.841Z,59.88
2022-10-20T17:05:55.905Z,59.40
2022-10-20T17:07:28.105Z,59.83
2022-10-20T17:09:00.687Z,60.03
2022-10-20T17:10:33.007Z,60.07
2022-10-20T17:12:05.773Z,60.12
2022-10-20T17:13:39.058Z,60.31
2022-10-20T17:15:11.625Z,60.58
2022-10-20T17:16:44.052Z,60.72
2022-10-20T17:18:16.408Z,61.00
2022-10-20T17:19:48.853Z,60.83
2022-10-20T17:21:21.096Z,60.88
2022-10-20T17:22:56.455Z,61.24
2022-10-20T17:24:28.668Z,61.11
2022-10-20T17:26:02.609Z,61.29
2022-10-20T17:27:35.264Z,61.76
2022-10-20T17:29:09.945Z,62.07
2022-10-20T17:30:43.289Z,62.38
2022-10-20T17:32:18.140Z,62.54
2022-10-20T17:33:55.248Z,62.79
2022-10-20T17:35:29.488Z,63.01
2022-10-20T17:37:01.756Z,63.08
2022-10-20T17:38:34.281Z,63.23
2022-10-20T17:40:07.425Z,63.44
2022-10-20T17:41:40.132Z,63.34
2022-10-20T17:43:12.369Z,63.90
2022-10-20T17:44:44.467Z,63.95
2022-10-20T17:46:18.144Z,63.64
2022-10-20T17:47:51.612Z,63.50
2022-10-20T17:49:23.521Z,63.31
2022-10-20T17:51:03.611Z,63.26
2022-10-20T17:52:36.051Z,63.87
2022-10-20T17:54:08.245Z,63.99
2022-10-20T17:55:40.303Z,63.92
2022-10-20T17:57:12.374Z,64.06
2022-10-20T17:58:45.667Z,64.45
2022-10-20T18:00:26.868Z,64.41
2022-10-20T18:02:10.566Z,64.54
2022-10-20T18:03:43.150Z,65.22
2022-10-20T18:05:15.789Z,65.01
2022-10-20T18:06:48.330Z,65.05
2022-10-20T18:08:20.368Z,65.24
2022-10-20T18:09:52.485Z,65.72
2022-10-20T18:11:27.322Z,65.79
2022-10-20T18:12:59.589Z,66.23
2022-10-20T18:14:31.605Z,66.02
2022-10-20T18:16:08.371Z,65.81
2022-10-20T18:17:40.692Z,65.90
2022-10-20T18:19:18.892Z,66.07
2022-10-20T18:20:55.995Z,66.49
2022-10-20T18:22:28.092Z,66.93
2022-10-20T18:24:03.866Z,66.86
2022-10-20T18:25:36.333Z,66.84
2022-10-20T18:27:08.663Z,66.69
2022-10-20T18:28:43.194Z,66.63
2022-10-20T18:30:17.961Z,66.46
2022-10-20T18:31:51.619Z,66.48
2022-10-20T18:33:23.612Z,66.08
2022-10-20T18:34:55.686Z,65.27
2022-10-20T18:36:28.253Z,65.48
2022-10-20T18:38:00.300Z,65.33
2022-10-20T18:39:32.438Z,65.30
2022-10-20T18:41:09.488Z,65.45
2022-10-20T18:42:41.482Z,65.91
2022-10-20T18:44:18.598Z,65.93
2022-10-20T18:45:52.040Z,66.12
2022-10-20T18:47:24.125Z,66.18
2022-10-20T18:48:56.765Z,66.72
2022-10-20T18:50:28.945Z,66.91
2022-10-20T18:52:01.031Z,67.02
2022-10-20T18:53:34.631Z,66.07
2022-10-20T18:55:08.553Z,65.84
2022-10-20T18:56:41.248Z,66.34
2022-10-20T18:58:13.264Z,66.72
2022-10-20T18:59:45.465Z,66.89
2022-10-20T19:01:20.206Z,66.94
2022-10-20T19:02:55.763Z,66.67
2022-10-20T19:04:29.997Z,66.52
2022-10-20T19:06:10.450Z,66.89
2022-10-20T19:07:42.815Z,67.15
2022-10-20T19:09:17.939Z,66.81
2022-10-20T19:10:50.038Z,66.71
2022-10-20T19:12:22.184Z,66.77
2022-10-20T19:13:54.893Z,67.08
2022-10-20T19:15:27.249Z,67.09
2022-10-20T19:16:59.650Z,67.41
2022-10-20T19:18:31.933Z,67.45
2022-10-20T19:20:05.051Z,67.62
2022-10-20T19:21:37.695Z,67.61
2022-10-20T19:23:09.949Z,67.89
2022-10-20T19:24:42.192Z,67.58
2022-10-20T19:26:21.060Z,67.48
2022-10-20T19:27:53.173Z,68.11
2022-10-20T19:29:25.283Z,68.10
2022-10-20T19:30:57.775Z,68.25
2022-10-20T19:32:29.833Z,68.58
2022-10-20T19:34:09.741Z,68.32
2022-10-20T19:35:41.996Z,68.54
2022-10-20T19:37:14.273Z,68.24
2022-10-20T19:38:47.137Z,67.92
2022-10-20T19:40:19.270Z,67.65
2022-10-20T19:41:51.861Z,67.58
2022-10-20T19:43:24.150Z,67.51
2022-10-20T19:44:56.155Z,67.10
2022-10-20T19:46:28.395Z,66.97
2022-10-20T19:49:38.024Z,67.55
2022-10-20T19:51:10.426Z,67.32
2022-10-20T19:52:42.566Z,67.76
2022-10-20T19:54:15.203Z,68.35
2022-10-20T19:55:50.832Z,68.86
2022-10-20T19:57:22.866Z,69.31
2022-10-20T19:58:55.040Z,69.70
2022-10-20T20:00:27.192Z,69.85
2022-10-20T20:01:59.431Z,69.76
2022-10-20T20:03:31.777Z,69.81
2022-10-20T20:05:06.867Z,69.72
2022-10-20T20:06:39.050Z,69.99
2022-10-20T20:08:11.390Z,70.11
2022-10-20T20:09:44.671Z,70.29
2022-10-20T20:11:26.638Z,69.87
2022-10-20T20:12:58.755Z,70.29
2022-10-20T20:14:30.834Z,70.20
2022-10-20T20:16:07.554Z,70.10
2022-10-20T20:17:39.842Z,70.36
2022-10-20T20:19:12.988Z,70.25
2022-10-20T20:20:46.657Z,70.29
2022-10-20T20:22:18.691Z,70.31
2022-10-20T20:24:01.882Z,70.18
2022-10-20T20:25:42.078Z,70.49
2022-10-20T20:27:14.279Z,70.40
2022-10-20T20:28:46.296Z,70.58
2022-10-20T20:30:18.363Z,70.39
2022-10-20T20:31:50.575Z,70.58
2022-10-20T20:33:22.551Z,70.73
2022-10-20T20:34:54.638Z,70.96
2022-10-20T20:36:27.565Z,70.89
2022-10-20T20:37:59.929Z,71.11
2022-10-20T20:39:31.920Z,71.15
2022-10-20T20:41:06.679Z,71.09
2022-10-20T20:42:38.650Z,71.26
2022-10-20T20:44:10.937Z,71.50
2022-10-20T20:45:44.382Z,71.62
2022-10-20T20:47:16.612Z,71.79
2022-10-20T20:48:49.520Z,71.79
2022-10-20T20:50:21.654Z,71.72
2022-10-20T20:51:53.747Z,71.71
2022-10-20T20:53:25.835Z,71.91
2022-10-20T20:54:57.871Z,72.11
2022-10-20T20:56:30.409Z,72.21
2022-10-20T20:58:02.410Z,72.58
2022-10-20T20:59:34.486Z,72.54
2022-10-20T21:01:12.036Z,72.50
2022-10-20T21:02:45.087Z,72.50
2022-10-20T21:04:17.748Z,72.67
2022-10-20T21:05:55.764Z,72.60
2022-10-20T21:07:27.808Z,72.50
2022-10-20T21:08:59.915Z,72.83
2022-10-20T21:10:32.020Z,73.00
2022-10-20T21:12:04.648Z,72.91
2022-10-20T21:13:37.781Z,73.28
2022-10-20T21:15:10.457Z,73.43
2022-10-20T21:18:16.369Z,73.41
2022-10-20T21:19:48.349Z,73.49
2022-10-20T21:21:32.129Z,73.53
2022-10-20T21:23:04.246Z,73.53
2022-10-20T21:24:37.360Z,73.67
2022-10-20T21:26:11.259Z,73.32
2022-10-20T21:27:43.265Z,73.59
2022-10-20T21:29:15.337Z,74.03
2022-10-20T21:30:47.321Z,74.03
2022-10-20T21:32:20.721Z,73.79
2022-10-20T21:33:54.352Z,73.92
2022-10-20T21:35:26.564Z,73.86
2022-10-20T21:36:58.542Z,74.13
2022-10-20T21:38:32.003Z,74.20
2022-10-20T21:40:03.965Z,74.09
2022-10-20T21:41:36.645Z,74.00
2022-10-20T21:43:11.582Z,74.00
2022-10-20T21:44:43.651Z,74.05
2022-10-20T21:46:18.655Z,73.94
2022-10-20T21:47:55.115Z,73.97
2022-10-20T21:49:27.184Z,73.91
2022-10-20T21:51:02.100Z,74.25
2022-10-20T21:54:12.598Z,74.15
2022-10-20T21:55:44.689Z,74.05
2022-10-20T21:57:16.767Z,73.92
2022-10-20T21:58:48.776Z,73.69
2022-10-20T22:00:23.279Z,73.42
2022-10-20T22:02:00.883Z,73.10
2022-10-20T22:05:05.057Z,72.63
2022-10-20T22:06:37.908Z,72.73
2022-10-20T22:08:09.858Z,72.62
2022-10-20T22:09:41.826Z,72.31
2022-10-20T22:11:19.262Z,72.12
2022-10-20T22:12:51.250Z,72.01
2022-10-20T22:14:24.057Z,72.04
2022-10-20T22:15:56.051Z,71.90
2022-10-20T22:17:28.027Z,72.01
2022-10-20T22:19:02.872Z,72.28
2022-10-20T22:20:38.066Z,72.42
2022-10-20T22:23:43.957Z,72.63
2022-10-20T22:25:16.114Z,72.82
2022-10-20T22:26:51.728Z,72.63
2022-10-20T22:28:23.803Z,72.95
2022-10-20T22:29:57.965Z,72.81
2022-10-20T22:31:30.081Z,72.85
2022-10-20T22:33:02.459Z,72.95
2022-10-20T22:34:34.542Z,73.10
2022-10-20T22:36:06.763Z,73.23
2022-10-20T22:37:38.817Z,73.37
2022-10-20T22:39:14.229Z,73.54
2022-10-20T22:40:46.281Z,73.54
2022-10-20T22:42:20.156Z,73.74
2022-10-20T22:43:54.605Z,73.50
2022-10-20T22:45:26.829Z,73.65
2022-10-20T22:46:58.836Z,73.64
2022-10-20T22:48:30.842Z,73.74
2022-10-20T22:50:02.913Z,73.69
2022-10-20T22:51:35.026Z,73.87
2022-10-20T22:53:07.077Z,74.07
2022-10-20T22:54:39.055Z,74.28
2022-10-20T22:56:14.589Z,74.37
2022-10-20T22:57:53.010Z,74.34
2022-10-20T22:59:28.131Z,74.10
2022-10-20T23:01:00.215Z,74.00
2022-10-20T23:02:33.156Z,74.29
2022-10-20T23:04:05.412Z,74.57
2022-10-20T23:05:37.790Z,74.38
2022-10-20T23:07:09.835Z,74.50
2022-10-20T23:08:46.945Z,74.46
2022-10-20T23:10:18.966Z,74.95
2022-10-20T23:11:50.947Z,74.77
2022-10-20T23:13:22.937Z,74.95
2022-10-20T23:14:54.924Z,74.80
2022-10-20T23:16:27.045Z,74.80
2022-10-20T23:17:58.969Z,74.91
2022-10-20T23:19:31.207Z,74.93
2022-10-20T23:21:03.354Z,74.92